createdAt,value
2018-09-10T00:00:05.370Z,5.30
2018-09-10T00:02:33.977Z,4.67
2018-09-10T00:05:02.621Z,4.70
2018-09-10T00:07:31.232Z,6.57
2018-09-10T00:09:59.774Z,3.67
2018-09-10T00:12:28.383Z,4.50
2018-09-10T00:14:56.942Z,4.70
2018-09-10T00:17:25.539Z,7.03
2018-09-10T00:19:54.146Z,4.90
2018-09-10T00:22:22.704Z,5.20
2018-09-10T00:24:51.462Z,7.20
2018-09-10T00:27:20.053Z,4.87
2018-09-10T00:29:49.155Z,3.90
2018-09-10T00:32:17.777Z,5.93
2018-09-10T00:34:46.419Z,5.20
2018-09-10T00:37:15.005Z,7.03
2018-09-10T00:39:43.587Z,4.70
2018-09-10T00:42:12.309Z,3.13
2018-09-10T00:44:40.914Z,5.93
2018-09-10T00:47:09.489Z,4.03
2018-09-10T00:49:38.061Z,7.33
2018-09-10T00:52:06.648Z,5.20
2018-09-10T00:54:35.243Z,4.77
2018-09-10T00:57:03.820Z,4.40
2018-09-10T00:59:32.403Z,6.80
2018-09-10T01:02:00.945Z,3.50
2018-09-10T01:04:29.661Z,6.57
2018-09-10T01:06:58.195Z,8.00
2018-09-10T01:09:26.820Z,3.20
2018-09-10T01:11:55.491Z,4.45
2018-09-10T01:14:24.077Z,4.53
2018-09-10T01:16:52.749Z,3.40
2018-09-10T01:19:21.331Z,6.90
2018-09-10T01:21:49.966Z,5.12
2018-09-10T01:24:18.511Z,3.73
2018-09-10T01:26:47.180Z,3.30
2018-09-10T01:29:16.025Z,6.45
2018-09-10T01:31:44.753Z,3.33
2018-09-10T01:34:18.598Z,4.30
2018-09-10T01:36:47.178Z,4.28
2018-09-10T01:39:15.833Z,2.95
2018-09-10T01:41:44.515Z,4.20
2018-09-10T01:44:13.151Z,3.73
2018-09-10T01:46:41.872Z,3.90
2018-09-10T01:49:10.425Z,3.20
2018-09-10T01:51:39.095Z,5.00
2018-09-10T01:54:07.725Z,3.35
2018-09-10T01:56:36.375Z,4.53
2018-09-10T01:59:05.177Z,7.10
2018-09-10T02:01:33.780Z,5.17
2018-09-10T02:04:02.466Z,3.95
2018-09-10T02:06:31.074Z,22.17
2018-09-10T02:08:59.682Z,4.73
2018-09-10T02:11:28.237Z,3.73
2018-09-10T02:13:56.882Z,4.23
2018-09-10T02:16:25.510Z,4.07
2018-09-10T02:18:54.096Z,4.70
2018-09-10T02:21:22.783Z,6.27
2018-09-10T02:23:51.344Z,7.00
2018-09-10T02:26:19.990Z,3.90
2018-09-10T02:28:48.585Z,4.20
2018-09-10T02:31:17.259Z,3.20
2018-09-10T02:33:45.813Z,3.97
2018-09-10T02:36:14.409Z,3.50
2018-09-10T02:38:43.073Z,4.37
2018-09-10T02:41:11.618Z,4.93
2018-09-10T02:43:40.267Z,28.07
2018-09-10T02:46:08.834Z,5.47
2018-09-10T02:48:37.480Z,6.27
2018-09-10T02:51:06.127Z,12.83
2018-09-10T02:53:34.727Z,3.83
2018-09-10T02:56:03.330Z,4.60
2018-09-10T02:58:31.903Z,7.13
2018-09-10T03:01:00.473Z,4.80
2018-09-10T03:03:29.002Z,7.40
2018-09-10T03:05:57.763Z,8.80
2018-09-10T03:08:26.379Z,7.37
2018-09-10T03:10:54.987Z,3.40
2018-09-10T03:13:23.595Z,3.87
2018-09-10T03:15:52.211Z,8.03
2018-09-10T03:18:20.780Z,4.00
2018-09-10T03:20:49.421Z,3.80
2018-09-10T03:23:18.029Z,4.90
2018-09-10T03:25:46.567Z,5.67
2018-09-10T03:28:15.266Z,6.00
2018-09-10T03:30:43.849Z,4.23
2018-09-10T03:33:12.582Z,3.50
2018-09-10T03:35:41.275Z,7.00
2018-09-10T03:38:09.944Z,8.57
2018-09-10T03:40:38.562Z,4.73
2018-09-10T03:43:08.816Z,5.07
2018-09-10T03:45:37.411Z,5.20
2018-09-10T03:48:06.060Z,4.17
2018-09-10T03:50:34.684Z,5.50
2018-09-10T03:53:03.367Z,7.43
2018-09-10T03:55:32.001Z,5.60
2018-09-10T03:58:00.794Z,8.77
2018-09-10T04:00:29.434Z,6.30
2018-09-10T04:02:58.147Z,6.87
2018-09-10T04:05:26.810Z,6.53
2018-09-10T04:07:55.428Z,9.10
2018-09-10T04:10:24.070Z,5.37
2018-09-10T04:12:52.826Z,6.13
2018-09-10T04:15:21.434Z,5.27
2018-09-10T04:17:50.044Z,6.30
2018-09-10T04:20:18.664Z,9.37
2018-09-10T04:22:47.265Z,5.80
2018-09-10T04:25:15.892Z,5.47
2018-09-10T04:27:44.477Z,5.13
2018-09-10T04:30:14.971Z,7.20
2018-09-10T04:32:43.606Z,7.83
2018-09-10T04:35:12.885Z,5.20
2018-09-10T04:37:41.570Z,8.10
2018-09-10T04:40:10.180Z,7.33
2018-09-10T04:42:38.789Z,8.97
2018-09-10T04:45:07.428Z,13.00
2018-09-10T04:47:36.023Z,9.90
2018-09-10T04:50:05.138Z,7.80
2018-09-10T04:52:33.763Z,6.97
2018-09-10T04:55:02.477Z,6.00
2018-09-10T04:57:31.075Z,6.83
2018-09-10T04:59:59.720Z,7.10
2018-09-10T05:02:28.278Z,6.63
2018-09-10T05:04:56.983Z,8.00
2018-09-10T05:07:25.643Z,7.97
2018-09-10T05:09:54.198Z,7.87
2018-09-10T05:12:24.411Z,7.37
2018-09-10T05:14:53.022Z,6.30
2018-09-10T05:17:21.686Z,7.13
2018-09-10T05:19:50.289Z,11.33
2018-09-10T05:22:18.843Z,6.90
2018-09-10T05:24:47.497Z,6.30
2018-09-10T05:27:16.141Z,9.87
2018-09-10T05:29:44.767Z,10.00
2018-09-10T05:32:13.420Z,10.00
2018-09-10T05:34:42.144Z,8.37
2018-09-10T05:37:10.773Z,14.20
2018-09-10T05:39:39.369Z,10.70
2018-09-10T05:42:07.921Z,9.60
2018-09-10T05:44:36.830Z,13.27
2018-09-10T05:47:05.390Z,12.03
2018-09-10T05:49:33.996Z,15.90
2018-09-10T05:52:02.682Z,12.73
2018-09-10T05:54:31.297Z,11.23
2018-09-10T05:57:00.816Z,8.40
2018-09-10T05:59:29.459Z,8.80
2018-09-10T06:01:58.146Z,14.70
2018-09-10T06:04:26.828Z,7.93
2018-09-10T06:06:55.497Z,9.90
2018-09-10T06:09:24.148Z,13.63
2018-09-10T06:11:52.782Z,19.87
2018-09-10T06:14:21.525Z,9.60
2018-09-10T06:16:50.195Z,8.43
2018-09-10T06:19:18.761Z,28.57
2018-09-10T06:21:47.442Z,78.90
2018-09-10T06:24:16.090Z,39.90
2018-09-10T06:26:44.666Z,14.33
2018-09-10T06:29:13.440Z,16.83
2018-09-10T06:31:42.190Z,26.33
2018-09-10T06:34:10.976Z,9.37
2018-09-10T06:36:39.605Z,14.30
2018-09-10T06:39:11.300Z,17.53
2018-09-10T06:41:39.971Z,18.43
2018-09-10T06:44:09.009Z,11.77
2018-09-10T06:46:37.902Z,15.80
2018-09-10T06:49:06.540Z,16.10
2018-09-10T06:51:35.206Z,20.27
2018-09-10T06:54:03.836Z,11.50
2018-09-10T06:56:32.395Z,14.50
2018-09-10T06:59:01.076Z,24.57
2018-09-10T07:01:29.643Z,17.80
2018-09-10T07:03:58.227Z,15.57
2018-09-10T07:06:26.872Z,23.30
2018-09-10T07:08:55.453Z,23.97
2018-09-10T07:11:24.099Z,17.33
2018-09-10T07:13:52.889Z,19.00
2018-09-10T07:16:21.562Z,19.77
2018-09-10T07:18:50.331Z,14.30
2018-09-10T07:21:18.986Z,14.30
2018-09-10T07:23:47.580Z,13.27
2018-09-10T07:26:16.213Z,19.97
2018-09-10T07:28:44.895Z,16.23
2018-09-10T07:31:13.587Z,18.40
2018-09-10T07:33:42.154Z,17.70
2018-09-10T07:36:10.829Z,16.00
2018-09-10T07:38:39.496Z,14.73
2018-09-10T07:41:08.117Z,11.53
2018-09-10T07:43:36.774Z,15.40
2018-09-10T07:46:05.474Z,17.73
2018-09-10T07:48:34.117Z,15.23
2018-09-10T07:51:02.769Z,16.67
2018-09-10T07:53:31.444Z,17.77
2018-09-10T07:56:00.681Z,17.83
2018-09-10T07:58:29.402Z,41.73
2018-09-10T08:00:58.034Z,16.97
2018-09-10T08:03:26.617Z,20.97
2018-09-10T08:05:55.256Z,18.33
2018-09-10T08:08:23.886Z,17.60
2018-09-10T08:10:52.536Z,16.80
2018-09-10T08:13:21.193Z,19.03
2018-09-10T08:15:49.874Z,21.67
2018-09-10T08:18:18.569Z,22.97
2018-09-10T08:20:47.294Z,28.27
2018-09-10T08:23:15.956Z,21.43
2018-09-10T08:25:44.571Z,30.50
2018-09-10T08:28:13.178Z,22.53
2018-09-10T08:30:42.110Z,18.13
2018-09-10T08:33:10.798Z,26.93
2018-09-10T08:35:39.447Z,19.73
2018-09-10T08:38:08.218Z,18.70
2018-09-10T08:40:36.790Z,23.63
2018-09-10T08:43:06.428Z,20.63
2018-09-10T08:45:35.095Z,22.93
2018-09-10T08:48:03.840Z,19.17
2018-09-10T08:50:32.447Z,17.43
2018-09-10T08:53:01.047Z,24.63
2018-09-10T08:55:29.723Z,22.33
2018-09-10T08:57:58.298Z,18.00
2018-09-10T09:00:27.418Z,20.20
2018-09-10T09:02:55.966Z,16.47
2018-09-10T09:05:24.585Z,16.80
2018-09-10T09:07:53.203Z,15.73
2018-09-10T09:10:21.838Z,18.03
2018-09-10T09:12:50.437Z,14.87
2018-09-10T09:15:19.046Z,22.90
2018-09-10T09:17:47.793Z,24.37
2018-09-10T09:20:16.375Z,19.27
2018-09-10T09:22:45.051Z,15.97
2018-09-10T09:25:13.666Z,17.47
2018-09-10T09:27:42.298Z,18.17
2018-09-10T09:30:11.054Z,22.60
2018-09-10T09:32:39.625Z,16.10
2018-09-10T09:35:08.271Z,17.60
2018-09-10T09:37:42.293Z,17.23
2018-09-10T09:40:15.953Z,18.27
2018-09-10T09:42:49.923Z,19.97
2018-09-10T09:45:23.858Z,15.33
2018-09-10T09:47:52.523Z,13.80
2018-09-10T09:50:21.049Z,20.33
2018-09-10T09:52:49.645Z,24.00
2018-09-10T09:55:18.305Z,25.90
2018-09-10T09:57:47.046Z,22.07
2018-09-10T10:00:15.640Z,16.47
2018-09-10T10:02:49.685Z,15.23
2018-09-10T10:05:18.283Z,19.37
2018-09-10T10:07:46.888Z,19.33
2018-09-10T10:10:15.557Z,16.03
2018-09-10T10:12:44.159Z,22.30
2018-09-10T10:15:12.794Z,12.50
2018-09-10T10:17:41.402Z,15.77
2018-09-10T10:20:10.081Z,17.93
2018-09-10T10:22:38.658Z,16.37
2018-09-10T10:25:07.386Z,15.67
2018-09-10T10:27:35.934Z,17.07
2018-09-10T10:30:04.692Z,10.30
2018-09-10T10:32:33.264Z,19.60
2018-09-10T10:35:02.216Z,13.93
2018-09-10T10:37:30.856Z,15.57
2018-09-10T10:39:59.438Z,14.00
2018-09-10T10:42:28.125Z,14.17
2018-09-10T10:44:56.664Z,17.43
2018-09-10T10:47:25.247Z,13.73
2018-09-10T10:49:53.964Z,14.23
2018-09-10T10:52:22.563Z,19.57
2018-09-10T10:54:51.171Z,13.47
2018-09-10T10:57:19.861Z,12.03
2018-09-10T10:59:48.443Z,12.27
2018-09-10T11:02:17.001Z,31.63
2018-09-10T11:04:45.929Z,13.60
2018-09-10T11:07:14.605Z,14.50
2018-09-10T11:09:43.385Z,14.90
2018-09-10T11:12:13.078Z,13.73
2018-09-10T11:14:41.787Z,12.90
2018-09-10T11:17:10.501Z,13.33
2018-09-10T11:19:39.151Z,12.33
2018-09-10T11:22:07.900Z,10.37
2018-09-10T11:24:36.637Z,12.70
2018-09-10T11:27:05.190Z,12.43
2018-09-10T11:29:33.927Z,12.27
2018-09-10T11:32:02.589Z,13.30
2018-09-10T11:34:31.209Z,13.80
2018-09-10T11:36:59.876Z,11.93
2018-09-10T11:39:28.656Z,12.50
2018-09-10T11:41:57.233Z,13.07
2018-09-10T11:44:25.886Z,9.23
2018-09-10T11:46:54.489Z,11.27
2018-09-10T11:49:23.132Z,14.00
2018-09-10T11:51:51.758Z,16.10
2018-09-10T11:54:20.368Z,16.27
2018-09-10T11:56:48.957Z,7.00
2018-09-10T11:59:17.784Z,29.97
2018-09-10T12:01:46.501Z,8.77
2018-09-10T12:04:15.117Z,8.53
2018-09-10T12:06:43.727Z,15.57
2018-09-10T12:09:12.469Z,15.03
2018-09-10T12:11:41.281Z,14.10
2018-09-10T12:14:09.927Z,12.90
2018-09-10T12:16:38.602Z,10.10
2018-09-10T12:19:07.139Z,15.07
2018-09-10T12:21:35.837Z,13.33
2018-09-10T12:24:04.408Z,12.47
2018-09-10T12:26:33.058Z,15.13
2018-09-10T12:29:01.534Z,14.33
2018-09-10T12:31:30.099Z,7.43
2018-09-10T12:33:58.689Z,11.30
2018-09-10T12:36:27.303Z,8.10
2018-09-10T12:38:55.990Z,7.20
2018-09-10T12:41:24.733Z,11.37
2018-09-10T12:43:53.330Z,15.17
2018-09-10T12:46:21.900Z,8.30
2018-09-10T12:48:50.548Z,20.80
2018-09-10T12:51:19.191Z,8.97
2018-09-10T12:53:47.839Z,10.00
2018-09-10T12:56:16.429Z,9.43
2018-09-10T12:58:45.059Z,10.47
2018-09-10T13:01:14.869Z,20.83
2018-09-10T13:03:43.547Z,7.50
2018-09-10T13:06:12.214Z,15.90
2018-09-10T13:08:41.033Z,7.40
2018-09-10T13:11:09.639Z,9.40
2018-09-10T13:13:38.241Z,11.57
2018-09-10T13:16:06.978Z,10.33
2018-09-10T13:18:35.547Z,15.60
2018-09-10T13:21:04.292Z,12.37
2018-09-10T13:23:32.898Z,16.03
2018-09-10T13:26:01.583Z,12.70
2018-09-10T13:28:30.189Z,11.27
2018-09-10T13:30:58.809Z,15.73
2018-09-10T13:33:27.559Z,9.70
2018-09-10T13:35:56.349Z,8.50
2018-09-10T13:38:24.919Z,6.60
2018-09-10T13:40:53.811Z,10.23
2018-09-10T13:43:22.359Z,14.20
2018-09-10T13:45:51.123Z,7.90
2018-09-10T13:48:19.774Z,9.90
2018-09-10T13:50:48.492Z,8.57
2018-09-10T13:53:17.211Z,5.33
2018-09-10T13:55:45.935Z,10.17
2018-09-10T13:58:14.559Z,7.33
2018-09-10T14:00:43.292Z,5.50
2018-09-10T14:03:11.905Z,7.20
2018-09-10T14:05:40.483Z,4.93
2018-09-10T14:08:09.156Z,7.23
2018-09-10T14:10:37.754Z,4.43
2018-09-10T14:13:06.470Z,4.03
2018-09-10T14:15:35.075Z,5.60
2018-09-10T14:18:03.689Z,4.43
2018-09-10T14:20:32.270Z,5.37
2018-09-10T14:23:00.808Z,6.57
2018-09-10T14:25:30.296Z,2.73
2018-09-10T14:27:59.076Z,4.70
2018-09-10T14:30:27.733Z,2.43
2018-09-10T14:32:56.389Z,5.53
2018-09-10T14:35:25.072Z,6.80
2018-09-10T14:37:53.997Z,5.60
2018-09-10T14:40:22.677Z,5.30
2018-09-10T14:42:51.369Z,4.80
2018-09-10T14:45:20.075Z,7.00
2018-09-10T14:47:48.734Z,2.80
2018-09-10T14:50:17.392Z,2.40
2018-09-10T14:52:46.113Z,3.80
2018-09-10T14:55:14.833Z,6.13
2018-09-10T14:57:43.541Z,4.17
2018-09-10T15:00:17.382Z,7.10
2018-09-10T15:02:46.068Z,5.50
2018-09-10T15:05:14.732Z,4.40
2018-09-10T15:07:43.351Z,3.93
2018-09-10T15:10:12.005Z,7.00
2018-09-10T15:12:40.910Z,7.20
2018-09-10T15:15:09.518Z,5.43
2018-09-10T15:17:38.205Z,10.07
2018-09-10T15:20:06.994Z,10.83
2018-09-10T15:22:35.809Z,5.87
2018-09-10T15:25:04.500Z,5.47
2018-09-10T15:27:33.119Z,7.43
2018-09-10T15:30:02.032Z,4.90
2018-09-10T15:32:30.820Z,8.00
2018-09-10T15:34:59.536Z,10.47
2018-09-10T15:37:28.309Z,10.77
2018-09-10T15:39:57.145Z,10.23
2018-09-10T15:42:25.922Z,5.00
2018-09-10T15:44:54.780Z,4.90
2018-09-10T15:47:23.456Z,4.90
2018-09-10T15:49:52.074Z,9.23
2018-09-10T15:52:20.945Z,4.93
2018-09-10T15:54:49.612Z,6.43
2018-09-10T15:57:18.286Z,6.37
2018-09-10T15:59:46.920Z,7.30
2018-09-10T16:02:15.688Z,9.00
2018-09-10T16:04:44.480Z,6.73
2018-09-10T16:07:13.144Z,5.73
2018-09-10T16:09:41.804Z,3.90
2018-09-10T16:12:10.419Z,8.13
2018-09-10T16:14:38.993Z,6.90
2018-09-10T16:17:07.605Z,7.03
2018-09-10T16:19:36.261Z,6.20
2018-09-10T16:22:05.007Z,4.53
2018-09-10T16:24:33.570Z,4.77
2018-09-10T16:27:02.196Z,5.87
2018-09-10T16:29:30.826Z,4.60
2018-09-10T16:31:59.502Z,10.50
2018-09-10T16:34:28.130Z,13.03
2018-09-10T16:36:56.741Z,4.33
2018-09-10T16:39:25.560Z,7.63
2018-09-10T16:41:54.306Z,4.20
2018-09-10T16:44:23.218Z,4.13
2018-09-10T16:46:51.844Z,6.50
2018-09-10T16:49:20.522Z,7.00
2018-09-10T16:51:49.228Z,7.57
2018-09-10T16:54:17.862Z,9.80
2018-09-10T16:56:46.463Z,6.27
2018-09-10T16:59:15.013Z,6.60
2018-09-10T17:01:43.610Z,4.57
2018-09-10T17:04:12.175Z,5.80
2018-09-10T17:06:40.795Z,3.60
2018-09-10T17:09:09.434Z,2.83
2018-09-10T17:11:38.019Z,5.60
2018-09-10T17:14:06.791Z,4.43
2018-09-10T17:16:35.402Z,6.73
2018-09-10T17:19:04.001Z,4.93
2018-09-10T17:21:32.691Z,5.07
2018-09-10T17:24:01.266Z,4.97
2018-09-10T17:26:29.994Z,3.00
2018-09-10T17:28:58.584Z,6.87
2018-09-10T17:31:27.276Z,4.60
2018-09-10T17:33:56.044Z,4.43
2018-09-10T17:36:24.790Z,5.47
2018-09-10T17:38:53.466Z,6.80
2018-09-10T17:41:22.070Z,3.37
2018-09-10T17:43:50.930Z,3.43
2018-09-10T17:46:19.584Z,4.50
2018-09-10T17:48:48.297Z,4.00
2018-09-10T17:51:17.045Z,5.87
2018-09-10T17:53:45.744Z,4.03
2018-09-10T17:56:14.365Z,7.10
2018-09-10T17:58:42.965Z,6.13
2018-09-10T18:01:11.595Z,5.13
2018-09-10T18:03:40.746Z,9.27
2018-09-10T18:06:09.558Z,3.50
2018-09-10T18:08:38.203Z,14.33
2018-09-10T18:11:07.017Z,5.60
2018-09-10T18:13:36.423Z,5.43
2018-09-10T18:16:05.189Z,8.53
2018-09-10T18:18:33.906Z,4.00
2018-09-10T18:21:02.599Z,10.10
2018-09-10T18:23:31.746Z,4.50
2018-09-10T18:26:01.587Z,7.30
2018-09-10T18:28:30.302Z,7.47
2018-09-10T18:30:59.155Z,5.67
2018-09-10T18:33:27.900Z,9.73
2018-09-10T18:35:56.595Z,12.50
2018-09-10T18:38:25.339Z,6.40
2018-09-10T18:40:54.019Z,6.33
2018-09-10T18:43:22.825Z,7.60
2018-09-10T18:45:51.422Z,7.53
2018-09-10T18:48:20.039Z,7.47
2018-09-10T18:50:48.662Z,8.80
2018-09-10T18:53:17.278Z,8.60
2018-09-10T18:55:45.896Z,10.93
2018-09-10T18:58:14.908Z,6.63
2018-09-10T19:00:44.019Z,10.23
2018-09-10T19:03:13.503Z,7.50
2018-09-10T19:05:42.204Z,5.30
2018-09-10T19:08:11.043Z,6.20
2018-09-10T19:10:40.017Z,6.07
2018-09-10T19:13:08.679Z,5.17
2018-09-10T19:15:37.425Z,8.47
2018-09-10T19:18:06.470Z,7.77
2018-09-10T19:20:35.049Z,9.13
2018-09-10T19:23:03.699Z,6.00
2018-09-10T19:25:32.470Z,9.80
2018-09-10T19:28:01.128Z,6.27
2018-09-10T19:30:30.027Z,7.83
2018-09-10T19:32:58.886Z,7.93
2018-09-10T19:35:28.208Z,9.50
2018-09-10T19:37:56.798Z,7.47
2018-09-10T19:40:26.055Z,12.50
2018-09-10T19:42:54.971Z,10.20
2018-09-10T19:45:23.796Z,9.73
2018-09-10T19:47:52.630Z,8.77
2018-09-10T19:50:21.629Z,7.53
2018-09-10T19:52:50.319Z,9.97
2018-09-10T19:55:18.973Z,6.70
2018-09-10T19:57:47.691Z,9.90
2018-09-10T20:00:16.291Z,6.93
2018-09-10T20:02:44.994Z,7.00
2018-09-10T20:05:13.649Z,9.07
2018-09-10T20:07:42.339Z,6.17
2018-09-10T20:10:11.021Z,5.40
2018-09-10T20:12:39.939Z,11.07
2018-09-10T20:15:08.614Z,12.13
2018-09-10T20:17:37.305Z,6.30
2018-09-10T20:20:06.846Z,9.50
2018-09-10T20:22:35.503Z,10.40
2018-09-10T20:25:04.197Z,13.33
2018-09-10T20:27:33.179Z,6.93
2018-09-10T20:30:01.856Z,8.10
2018-09-10T20:32:30.524Z,7.93
2018-09-10T20:34:59.287Z,13.23
2018-09-10T20:37:27.899Z,9.13
2018-09-10T20:39:56.570Z,7.10
2018-09-10T20:42:25.165Z,18.53
2018-09-10T20:44:53.829Z,11.27
2018-09-10T20:47:22.884Z,6.07
2018-09-10T20:49:51.819Z,7.67
2018-09-10T20:52:20.489Z,12.27
2018-09-10T20:54:49.211Z,9.10
2018-09-10T20:57:17.794Z,9.20
2018-09-10T20:59:47.280Z,17.03
2018-09-10T21:02:15.896Z,7.57
2018-09-10T21:04:44.578Z,14.30
2018-09-10T21:07:13.179Z,11.03
2018-09-10T21:09:41.866Z,16.43
2018-09-10T21:12:10.439Z,11.93
2018-09-10T21:14:40.109Z,16.57
2018-09-10T21:17:08.766Z,13.67
2018-09-10T21:19:37.366Z,11.83
2018-09-10T21:22:05.995Z,13.57
2018-09-10T21:24:34.573Z,13.67
2018-09-10T21:27:03.147Z,9.03
2018-09-10T21:29:31.834Z,15.50
2018-09-10T21:32:00.483Z,13.37
2018-09-10T21:34:29.096Z,12.33
2018-09-10T21:36:57.735Z,8.23
2018-09-10T21:39:26.379Z,12.10
2018-09-10T21:41:54.970Z,10.17
2018-09-10T21:44:23.554Z,9.80
2018-09-10T21:46:52.199Z,15.17
2018-09-10T21:49:20.808Z,14.93
2018-09-10T21:51:49.430Z,11.67
2018-09-10T21:54:18.019Z,13.50
2018-09-10T21:56:46.635Z,14.40
2018-09-10T21:59:15.357Z,10.77
2018-09-10T22:01:43.940Z,17.43
2018-09-10T22:04:12.604Z,16.77
2018-09-10T22:06:41.207Z,10.30
2018-09-10T22:09:10.113Z,13.53
2018-09-10T22:11:45.776Z,11.73
2018-09-10T22:14:14.676Z,13.40
2018-09-10T22:16:43.406Z,10.70
2018-09-10T22:19:12.399Z,18.17
2018-09-10T22:21:41.125Z,10.13
2018-09-10T22:24:09.870Z,16.03
2018-09-10T22:26:38.473Z,13.93
2018-09-10T22:29:07.137Z,14.77
2018-09-10T22:31:35.858Z,17.03
2018-09-10T22:34:04.567Z,9.90
2018-09-10T22:36:33.231Z,13.47
2018-09-10T22:39:02.261Z,13.60
2018-09-10T22:41:30.974Z,9.60
2018-09-10T22:43:59.510Z,16.00
2018-09-10T22:46:28.107Z,11.10
2018-09-10T22:48:56.780Z,8.97
2018-09-10T22:51:25.412Z,13.43
2018-09-10T22:53:54.057Z,9.27
2018-09-10T22:56:22.728Z,9.70
2018-09-10T22:58:51.857Z,10.83
2018-09-10T23:01:20.464Z,12.07
2018-09-10T23:03:49.283Z,10.13
2018-09-10T23:06:17.959Z,12.60
2018-09-10T23:08:46.735Z,10.27
2018-09-10T23:11:15.417Z,9.47
2018-09-10T23:13:44.013Z,9.30
2018-09-10T23:16:12.696Z,8.70
2018-09-10T23:18:41.284Z,14.37
2018-09-10T23:21:09.948Z,14.27
2018-09-10T23:23:38.647Z,14.27
2018-09-10T23:26:07.392Z,17.23
2018-09-10T23:28:36.436Z,15.33
2018-09-10T23:31:05.100Z,13.60
2018-09-10T23:33:33.849Z,7.77
2018-09-10T23:36:02.457Z,13.53
2018-09-10T23:38:31.290Z,7.73
2018-09-10T23:41:00.004Z,11.90
2018-09-10T23:43:28.685Z,11.90
2018-09-10T23:45:57.308Z,15.83
2018-09-10T23:48:26.499Z,10.27
2018-09-10T23:50:55.034Z,12.27
2018-09-10T23:53:23.736Z,19.87
2018-09-10T23:55:52.383Z,11.20
2018-09-10T23:58:21.071Z,11.10
